createdAt,value
2023-03-08T05:15:13.655Z,99.99
2023-03-08T05:16:13.656Z,99.99
2023-03-08T05:17:13.595Z,99.99
2023-03-08T05:18:13.584Z,99.99
2023-03-08T05:19:13.564Z,99.99
2023-03-08T05:20:13.583Z,99.99
2023-03-08T05:21:13.545Z,99.99
2023-03-08T05:22:13.532Z,99.99
2023-03-08T05:23:13.516Z,99.99
2023-03-08T05:24:13.508Z,99.99
2023-03-08T05:25:13.501Z,99.99
2023-03-08T05:26:13.493Z,99.99
2023-03-08T05:27:13.462Z,99.99
2023-03-08T05:28:13.461Z,99.99
2023-03-08T05:29:13.441Z,99.99
2023-03-08T05:30:13.431Z,99.99
2023-03-08T05:31:13.524Z,99.99
2023-03-08T05:32:13.455Z,99.99
2023-03-08T05:33:13.381Z,99.99
2023-03-08T05:34:13.380Z,99.99
2023-03-08T05:35:13.366Z,99.99
2023-03-08T05:36:13.358Z,99.99
2023-03-08T05:37:13.336Z,99.99
2023-03-08T05:38:13.326Z,99.99
2023-03-08T05:39:13.310Z,99.99
2023-03-08T05:40:13.317Z,99.99
2023-03-08T05:41:13.297Z,99.99
2023-03-08T05:42:13.283Z,99.99
2023-03-08T05:43:13.283Z,99.99
2023-03-08T05:44:13.264Z,99.99
2023-03-08T05:45:13.270Z,99.99
2023-03-08T05:46:13.287Z,99.99
2023-03-08T05:47:13.205Z,99.99
2023-03-08T05:48:13.204Z,99.99
2023-03-08T05:49:13.184Z,99.99
2023-03-08T05:50:13.183Z,99.99
2023-03-08T05:51:13.164Z,99.99
2023-03-08T05:52:13.143Z,99.99
2023-03-08T05:53:13.123Z,99.99
2023-03-08T05:54:13.113Z,99.99
2023-03-08T05:55:13.103Z,99.99
2023-03-08T05:56:13.112Z,99.99
2023-03-08T05:57:13.073Z,99.99
2023-03-08T05:58:13.068Z,99.99
2023-03-08T05:59:13.054Z,99.99
2023-03-08T06:00:13.043Z,99.99
2023-03-08T06:01:13.039Z,99.99
2023-03-08T06:02:13.041Z,99.99
2023-03-08T06:03:13.016Z,99.99
2023-03-08T06:04:12.988Z,99.99
2023-03-08T06:05:12.975Z,99.99
2023-03-08T06:06:13.016Z,99.99
2023-03-08T06:07:12.936Z,99.99
2023-03-08T06:08:12.941Z,99.99
2023-03-08T06:09:12.927Z,99.99
2023-03-08T06:10:12.922Z,99.99
2023-03-08T06:11:12.895Z,99.99
2023-03-08T06:12:12.893Z,99.99
2023-03-08T06:13:12.885Z,99.99
2023-03-08T06:14:13.413Z,99.99
2023-03-08T06:15:12.860Z,99.99
2023-03-08T06:16:12.856Z,99.99
2023-03-08T06:17:12.824Z,99.99
2023-03-08T06:18:12.791Z,98.00
2023-03-08T06:19:12.791Z,95.56
2023-03-08T06:20:12.799Z,96.33
2023-03-08T06:21:12.760Z,97.69
2023-03-08T06:22:12.778Z,96.72
2023-03-08T06:23:12.760Z,94.74
2023-03-08T06:24:12.724Z,94.43
2023-03-08T06:25:12.723Z,94.02
2023-03-08T06:26:12.693Z,93.19
2023-03-08T06:27:12.699Z,93.02
2023-03-08T06:28:12.670Z,92.61
2023-03-08T06:29:12.660Z,93.33
2023-03-08T06:30:12.650Z,92.41
2023-03-08T06:31:12.706Z,92.82
2023-03-08T06:32:12.674Z,92.66
2023-03-08T06:33:12.611Z,93.01
2023-03-08T06:34:12.592Z,93.26
2023-03-08T06:35:12.586Z,93.30
2023-03-08T06:36:12.568Z,94.28
2023-03-08T06:37:12.578Z,94.74
2023-03-08T06:38:12.546Z,95.62
2023-03-08T06:39:12.540Z,96.28
2023-03-08T06:40:12.522Z,97.06
2023-03-08T06:41:12.511Z,98.36
2023-03-08T06:42:12.519Z,99.57
2023-03-08T06:43:12.494Z,99.01
2023-03-08T06:44:12.471Z,97.55
2023-03-08T06:45:12.485Z,97.24
2023-03-08T06:46:12.498Z,97.03
2023-03-08T06:47:12.453Z,97.03
2023-03-08T06:48:12.414Z,96.03
2023-03-08T06:49:12.413Z,95.70
2023-03-08T06:50:12.392Z,96.26
2023-03-08T06:51:12.394Z,97.25
2023-03-08T06:52:12.385Z,98.23
2023-03-08T06:53:12.353Z,99.22
2023-03-08T06:54:12.335Z,99.99
2023-03-08T06:55:12.334Z,99.99
2023-03-08T06:56:12.317Z,99.99
2023-03-08T06:57:12.313Z,99.99
2023-03-08T06:58:12.286Z,99.99
2023-03-08T06:59:12.282Z,99.99
2023-03-08T07:00:12.293Z,99.99
2023-03-08T07:01:12.291Z,99.99
2023-03-08T07:02:12.253Z,99.99
2023-03-08T07:03:12.238Z,99.99
2023-03-08T07:04:12.224Z,99.99
2023-03-08T07:05:12.200Z,99.99
2023-03-08T07:06:12.191Z,99.99
2023-03-08T07:07:12.192Z,99.99
2023-03-08T07:08:12.175Z,99.99
2023-03-08T07:09:12.177Z,99.99
2023-03-08T07:10:12.126Z,99.99
2023-03-08T07:11:12.114Z,99.99
2023-03-08T07:12:12.104Z,99.99
2023-03-08T07:13:12.109Z,99.99
2023-03-08T07:14:12.074Z,99.99
2023-03-08T07:15:12.066Z,99.99
2023-03-08T07:16:12.106Z,99.99
2023-03-08T07:17:12.031Z,99.99
2023-03-08T07:18:12.836Z,99.99
2023-03-08T07:19:12.014Z,99.99
2023-03-08T07:20:12.001Z,99.99
2023-03-08T07:21:11.981Z,99.99
2023-03-08T07:22:11.980Z,99.99
2023-03-08T07:23:11.984Z,99.99
2023-03-08T07:24:11.960Z,99.99
2023-03-08T07:25:11.937Z,99.99
2023-03-08T07:26:11.931Z,99.99
2023-03-08T07:27:11.913Z,99.99
2023-03-08T07:28:11.935Z,99.99
2023-03-08T07:29:11.885Z,99.99
2023-03-08T07:30:11.905Z,99.99
2023-03-08T07:31:11.873Z,99.99
2023-03-08T07:32:11.933Z,99.99
2023-03-08T07:33:12.009Z,99.99
2023-03-08T07:34:11.821Z,99.99
2023-03-08T07:35:11.810Z,99.99
2023-03-08T07:36:11.835Z,99.99
2023-03-08T07:37:11.781Z,99.99
2023-03-08T07:38:11.771Z,99.99
2023-03-08T07:39:11.757Z,99.99
2023-03-08T07:40:11.744Z,99.99
2023-03-08T07:41:11.836Z,99.99
2023-03-08T07:42:11.722Z,99.99
2023-03-08T07:43:11.727Z,99.99
2023-03-08T07:44:11.689Z,99.99
2023-03-08T07:45:11.678Z,99.99
2023-03-08T07:46:11.705Z,99.99
2023-03-08T07:47:11.671Z,99.99
2023-03-08T07:48:11.648Z,99.99
2023-03-08T07:49:11.663Z,99.99
2023-03-08T07:50:11.616Z,99.99
2023-03-08T07:51:11.598Z,99.99
2023-03-08T07:52:11.588Z,99.99
2023-03-08T07:53:11.618Z,99.99
2023-03-08T07:54:11.562Z,99.99
2023-03-08T07:55:11.559Z,99.99
2023-03-08T07:56:11.538Z,99.99
2023-03-08T07:57:11.536Z,99.99
2023-03-08T07:58:11.534Z,99.99
2023-03-08T07:59:11.496Z,99.99
2023-03-08T08:00:11.493Z,99.99
2023-03-08T08:01:11.493Z,99.99
2023-03-08T08:02:11.473Z,99.99
2023-03-08T08:03:11.509Z,99.99
2023-03-08T08:04:11.482Z,99.99
2023-03-08T08:05:11.464Z,99.99
2023-03-08T08:06:11.414Z,99.99
2023-03-08T08:07:11.413Z,99.99
2023-03-08T08:08:11.396Z,99.99
2023-03-08T08:09:11.366Z,99.99
2023-03-08T08:10:11.363Z,99.99
2023-03-08T08:11:11.344Z,99.99
2023-03-08T08:12:11.352Z,99.99
2023-03-08T08:13:11.342Z,99.99
2023-03-08T08:14:11.310Z,99.99
2023-03-08T08:15:11.290Z,99.99
2023-03-08T08:16:11.480Z,99.99
2023-03-08T08:17:11.267Z,99.99
2023-03-08T08:18:11.271Z,99.99
2023-03-08T08:19:11.234Z,99.99
2023-03-08T08:20:11.236Z,99.99
2023-03-08T08:21:11.249Z,99.99
2023-03-08T08:22:11.198Z,99.99
2023-03-08T08:23:11.212Z,99.99
2023-03-08T08:24:11.178Z,99.99
2023-03-08T08:25:11.157Z,99.99
2023-03-08T08:26:11.152Z,99.99
2023-03-08T08:27:11.139Z,99.99
2023-03-08T08:28:11.126Z,99.99
2023-03-08T08:29:11.142Z,99.99
2023-03-08T08:30:11.103Z,99.99
2023-03-08T08:31:11.125Z,99.99
2023-03-08T08:32:11.132Z,99.99
2023-03-08T08:33:11.045Z,99.99
2023-03-08T08:34:11.058Z,99.99
2023-03-08T08:35:11.024Z,99.99
2023-03-08T08:36:11.056Z,99.99
2023-03-08T08:37:11.003Z,99.99
2023-03-08T08:38:10.994Z,99.99
2023-03-08T08:39:10.989Z,99.99
2023-03-08T08:40:10.962Z,99.99
2023-03-08T08:41:10.959Z,99.99
2023-03-08T08:42:10.943Z,99.99
2023-03-08T08:43:10.921Z,99.99
2023-03-08T08:44:10.931Z,99.99
2023-03-08T08:45:10.907Z,99.99
2023-03-08T08:46:10.973Z,99.99
2023-03-08T08:47:10.874Z,99.99
2023-03-08T08:48:10.871Z,99.99
2023-03-08T08:49:10.883Z,99.99
2023-03-08T08:50:12.939Z,99.99
2023-03-08T08:51:10.826Z,99.99
2023-03-08T08:52:10.810Z,99.99
2023-03-08T08:53:10.809Z,99.99
2023-03-08T08:54:10.937Z,99.99
2023-03-08T08:55:10.766Z,99.99
2023-03-08T08:56:20.333Z,99.99
2023-03-08T08:57:11.742Z,99.99
2023-03-08T08:58:10.736Z,99.99
2023-03-08T08:59:10.719Z,99.99
2023-03-08T09:00:10.707Z,99.99
2023-03-08T09:01:10.698Z,99.99
2023-03-08T09:02:10.684Z,99.99
2023-03-08T09:03:10.665Z,99.99
2023-03-08T09:04:10.714Z,99.99
2023-03-08T09:05:10.689Z,99.99
2023-03-08T09:06:10.632Z,99.99
2023-03-08T09:07:10.606Z,99.99
2023-03-08T09:08:10.606Z,99.99
2023-03-08T09:09:10.598Z,99.99
2023-03-08T09:10:10.579Z,99.99
2023-03-08T09:11:11.405Z,99.99
2023-03-08T09:12:10.545Z,99.99
2023-03-08T09:13:10.558Z,99.99
2023-03-08T09:14:10.533Z,99.99
2023-03-08T09:15:10.555Z,99.99
2023-03-08T09:16:10.600Z,99.99
2023-03-08T09:17:10.486Z,99.99
2023-03-08T09:18:10.488Z,99.99
2023-03-08T09:19:10.489Z,99.99
2023-03-08T09:20:10.465Z,99.99
2023-03-08T09:21:10.466Z,99.99
2023-03-08T09:22:10.427Z,99.99
2023-03-08T09:23:10.496Z,99.99
2023-03-08T09:24:10.420Z,99.99
2023-03-08T09:25:10.385Z,99.99
2023-03-08T09:26:10.375Z,99.99
2023-03-08T09:27:10.358Z,99.99
2023-03-08T09:28:10.372Z,99.99
2023-03-08T09:29:10.348Z,99.99
2023-03-08T09:30:10.355Z,99.99
2023-03-08T09:31:10.319Z,99.99
2023-03-08T09:32:10.512Z,99.99
2023-03-08T09:33:17.332Z,99.99
2023-03-08T09:34:10.281Z,99.99
2023-03-08T09:35:10.249Z,99.99
2023-03-08T09:36:10.250Z,99.99
2023-03-08T09:37:10.232Z,99.99
2023-03-08T09:38:10.223Z,99.99
2023-03-08T09:39:10.229Z,99.99
2023-03-08T09:40:10.200Z,99.99
2023-03-08T09:41:10.178Z,99.99
2023-03-08T09:42:10.183Z,99.99
2023-03-08T09:43:10.150Z,99.99
2023-03-08T09:44:10.161Z,99.99
2023-03-08T09:45:10.131Z,99.99
2023-03-08T09:46:10.161Z,99.99
2023-03-08T09:47:10.109Z,99.99
2023-03-08T09:48:10.190Z,99.99
2023-03-08T09:49:10.087Z,99.99
2023-03-08T09:50:10.085Z,99.99
2023-03-08T09:51:10.052Z,99.99
2023-03-08T09:52:10.052Z,99.99
2023-03-08T09:53:10.020Z,99.99
2023-03-08T09:54:10.040Z,99.99
2023-03-08T09:55:10.057Z,99.99
2023-03-08T09:56:09.984Z,99.99
2023-03-08T09:57:10.003Z,99.99
2023-03-08T09:58:09.989Z,99.99
2023-03-08T09:59:09.932Z,99.99
2023-03-08T10:00:09.991Z,99.99
2023-03-08T10:01:09.941Z,99.99
2023-03-08T10:02:09.909Z,99.99
2023-03-08T10:03:09.931Z,99.99
2023-03-08T10:04:09.917Z,99.99
2023-03-08T10:05:13.639Z,99.99
2023-03-08T10:06:09.858Z,99.99
2023-03-08T10:07:09.838Z,99.99
2023-03-08T10:08:09.852Z,99.99
2023-03-08T10:09:09.808Z,99.99
2023-03-08T10:10:09.833Z,99.99
2023-03-08T10:11:09.805Z,99.99
2023-03-08T10:12:13.162Z,99.99
2023-03-08T10:13:09.800Z,99.99
2023-03-08T10:14:09.746Z,99.99
2023-03-08T10:15:09.744Z,99.99
2023-03-08T10:16:09.738Z,99.99
2023-03-08T10:17:09.707Z,99.99
2023-03-08T10:18:09.694Z,99.99
2023-03-08T10:19:09.699Z,99.99
2023-03-08T10:20:09.683Z,99.99
2023-03-08T10:21:09.652Z,99.99
2023-03-08T10:22:09.656Z,99.99
2023-03-08T10:23:09.624Z,99.99
2023-03-08T10:24:09.621Z,99.99
2023-03-08T10:25:09.624Z,99.99
2023-03-08T10:26:09.590Z,99.99
2023-03-08T10:27:09.574Z,99.99
2023-03-08T10:28:09.565Z,99.99
2023-03-08T10:29:09.553Z,99.99
2023-03-08T10:30:09.551Z,99.99
2023-03-08T10:31:09.586Z,99.99
2023-03-08T10:32:09.569Z,99.99
2023-03-08T10:33:09.494Z,99.99
2023-03-08T10:34:09.484Z,99.99
2023-03-08T10:35:09.494Z,99.99
2023-03-08T10:36:09.568Z,99.99
2023-03-08T10:37:09.463Z,99.99
2023-03-08T10:38:09.434Z,99.99
2023-03-08T10:39:09.432Z,99.99
2023-03-08T10:40:09.464Z,99.99
2023-03-08T10:41:09.395Z,99.99
2023-03-08T10:42:09.393Z,99.99
2023-03-08T10:43:09.375Z,99.99
2023-03-08T10:44:09.366Z,99.99
2023-03-08T10:45:09.363Z,99.99
2023-03-08T10:46:09.392Z,99.99
2023-03-08T10:47:09.324Z,99.99
2023-03-08T10:48:09.303Z,99.99
2023-03-08T10:49:09.323Z,99.99
2023-03-08T10:50:09.290Z,99.99
2023-03-08T10:51:09.284Z,99.99
2023-03-08T10:52:09.295Z,99.99
2023-03-08T10:53:09.243Z,99.98
2023-03-08T10:54:09.245Z,99.87
2023-03-08T10:55:09.248Z,99.99
2023-03-08T10:56:09.235Z,99.96
2023-03-08T10:57:09.211Z,99.99
2023-03-08T10:58:09.181Z,99.99
2023-03-08T10:59:09.181Z,99.99
2023-03-08T11:00:11.242Z,99.99
2023-03-08T11:01:09.141Z,99.99
2023-03-08T11:02:09.121Z,99.99
2023-03-08T11:03:09.117Z,99.99
2023-03-08T11:04:09.122Z,99.99
2023-03-08T11:05:09.099Z,99.99
2023-03-08T11:06:10.991Z,99.99
2023-03-08T11:07:09.059Z,99.99
2023-03-08T11:08:09.050Z,99.99
2023-03-08T11:09:09.048Z,99.99
2023-03-08T11:10:09.019Z,99.99
2023-03-08T11:11:09.020Z,99.99
2023-03-08T11:12:10.601Z,99.99
2023-03-08T11:13:08.985Z,99.99
2023-03-08T11:14:08.990Z,99.99
2023-03-08T11:15:08.956Z,99.99
2023-03-08T11:16:08.991Z,99.99
2023-03-08T11:17:08.960Z,99.99
2023-03-08T11:18:09.519Z,99.99
2023-03-08T11:19:09.071Z,99.91
2023-03-08T11:20:08.898Z,99.99
2023-03-08T11:21:08.889Z,99.99
2023-03-08T11:22:08.874Z,99.99
2023-03-08T11:23:08.857Z,99.99
2023-03-08T11:24:08.899Z,99.99
2023-03-08T11:25:08.829Z,99.99
2023-03-08T11:26:08.813Z,99.99
2023-03-08T11:27:08.886Z,99.99
2023-03-08T11:28:08.837Z,99.71
2023-03-08T11:29:08.945Z,99.81
2023-03-08T11:30:10.224Z,99.60
2023-03-08T11:31:08.860Z,99.50
2023-03-08T11:32:08.770Z,99.60
2023-03-08T11:33:08.897Z,99.29
2023-03-08T11:34:08.779Z,99.60
2023-03-08T11:35:08.692Z,99.71
2023-03-08T11:36:08.730Z,99.96
2023-03-08T11:37:08.664Z,99.99
2023-03-08T11:38:08.660Z,99.99
2023-03-08T11:39:08.662Z,99.91
2023-03-08T11:40:08.640Z,99.99
2023-03-08T11:41:08.621Z,99.99
2023-03-08T11:42:08.922Z,99.99
2023-03-08T11:43:08.600Z,99.99
2023-03-08T11:44:08.605Z,99.99
2023-03-08T11:45:08.578Z,99.99
2023-03-08T11:46:08.576Z,99.99
2023-03-08T11:47:08.541Z,99.99
2023-03-08T11:48:08.522Z,99.99
2023-03-08T11:49:08.553Z,99.99
2023-03-08T11:50:08.501Z,99.99
2023-03-08T11:51:08.499Z,99.99
2023-03-08T11:52:08.491Z,99.18
2023-03-08T11:53:08.460Z,99.08
2023-03-08T11:54:08.458Z,99.35
2023-03-08T11:55:08.457Z,99.55
2023-03-08T11:56:08.424Z,99.14
2023-03-08T11:57:08.409Z,98.93
2023-03-08T11:58:08.386Z,98.93
2023-03-08T11:59:08.405Z,99.35
2023-03-08T12:00:08.369Z,99.87
2023-03-08T12:01:08.353Z,99.98
2023-03-08T12:02:08.346Z,99.99
2023-03-08T12:03:08.460Z,99.98
2023-03-08T12:04:08.467Z,99.50
2023-03-08T12:05:08.405Z,99.40
2023-03-08T12:06:16.261Z,99.29
2023-03-08T12:07:09.435Z,99.45
2023-03-08T12:08:08.325Z,99.66
2023-03-08T12:09:08.390Z,99.76
2023-03-08T12:10:08.381Z,99.18
2023-03-08T12:11:08.220Z,98.56
2023-03-08T12:12:08.220Z,98.66
2023-03-08T12:13:08.199Z,99.08
2023-03-08T12:14:08.190Z,99.45
2023-03-08T12:15:08.226Z,99.35
2023-03-08T12:16:08.194Z,98.93
2023-03-08T12:17:08.336Z,98.93
2023-03-08T12:18:08.135Z,98.87
2023-03-08T12:19:08.147Z,98.97
2023-03-08T12:20:08.108Z,98.87
2023-03-08T12:21:08.088Z,98.46
2023-03-08T12:22:08.099Z,98.25
2023-03-08T12:23:08.154Z,98.56
2023-03-08T12:24:08.102Z,98.41
2023-03-08T12:25:08.036Z,98.31
2023-03-08T12:26:08.016Z,98.52
2023-03-08T12:27:08.006Z,97.99
2023-03-08T12:28:08.053Z,97.89
2023-03-08T12:29:08.056Z,97.47
2023-03-08T12:30:07.967Z,97.27
2023-03-08T12:31:24.845Z,97.47
2023-03-08T12:32:09.164Z,97.89
2023-03-08T12:33:08.091Z,98.05
2023-03-08T12:34:08.688Z,97.43
2023-03-08T12:35:07.919Z,97.22
2023-03-08T12:36:08.014Z,97.43
2023-03-08T12:37:07.922Z,97.33
2023-03-08T12:38:07.896Z,97.06
2023-03-08T12:39:08.011Z,96.95
2023-03-08T12:40:07.986Z,96.85
2023-03-08T12:41:07.888Z,96.95
2023-03-08T12:42:07.841Z,97.16
2023-03-08T12:43:07.799Z,96.85
2023-03-08T12:44:07.810Z,96.75
2023-03-08T12:45:07.779Z,96.95
2023-03-08T12:46:07.845Z,97.37
2023-03-08T12:47:07.760Z,97.47
2023-03-08T12:48:07.758Z,96.85
2023-03-08T12:49:07.740Z,96.59
2023-03-08T12:50:07.719Z,96.64
2023-03-08T12:51:07.724Z,96.53
2023-03-08T12:52:07.699Z,96.53
2023-03-08T12:53:07.687Z,96.75
2023-03-08T12:54:07.687Z,96.85
2023-03-08T12:55:07.647Z,96.85
2023-03-08T12:56:07.648Z,96.75
2023-03-08T12:57:07.635Z,96.75
2023-03-08T12:58:07.617Z,96.95
2023-03-08T12:59:07.617Z,96.85
2023-03-08T13:00:07.595Z,96.75
2023-03-08T13:01:07.619Z,96.85
2023-03-08T13:02:07.566Z,96.75
2023-03-08T13:03:07.545Z,96.75
2023-03-08T13:04:07.604Z,96.59
2023-03-08T13:05:07.586Z,96.33
2023-03-08T13:06:07.516Z,96.12
2023-03-08T13:07:07.494Z,96.53
2023-03-08T13:08:07.490Z,96.22
2023-03-08T13:09:07.491Z,96.12
2023-03-08T13:10:07.472Z,96.33
2023-03-08T13:11:08.278Z,96.53
2023-03-08T13:12:07.438Z,96.64
2023-03-08T13:13:07.427Z,96.64
2023-03-08T13:14:07.433Z,96.75
2023-03-08T13:15:07.403Z,96.75
2023-03-08T13:16:07.388Z,96.43
2023-03-08T13:17:07.364Z,96.33
2023-03-08T13:18:07.356Z,96.64
2023-03-08T13:19:07.396Z,96.64
2023-03-08T13:20:07.365Z,96.53
2023-03-08T13:21:07.315Z,95.29
2023-03-08T13:22:07.307Z,94.81
2023-03-08T13:23:07.316Z,94.76
2023-03-08T13:24:07.293Z,94.76
2023-03-08T13:25:07.284Z,94.87
2023-03-08T13:26:07.292Z,94.56
2023-03-08T13:27:07.233Z,94.66
2023-03-08T13:28:07.244Z,94.76
2023-03-08T13:29:07.264Z,94.66
2023-03-08T13:30:07.353Z,94.56
2023-03-08T13:31:07.227Z,94.87
2023-03-08T13:32:07.284Z,94.76
2023-03-08T13:33:07.173Z,94.72
2023-03-08T13:34:07.174Z,94.72
2023-03-08T13:35:07.135Z,95.14
2023-03-08T13:36:07.187Z,95.14
2023-03-08T13:37:07.113Z,95.35
2023-03-08T13:38:07.111Z,95.25
2023-03-08T13:39:07.125Z,95.25
2023-03-08T13:40:07.080Z,94.82
2023-03-08T13:41:07.066Z,93.99
2023-03-08T13:42:07.058Z,93.58
2023-03-08T13:43:07.030Z,93.99
2023-03-08T13:44:07.070Z,93.89
2023-03-08T13:45:07.018Z,93.99
2023-03-08T13:46:07.057Z,94.20
2023-03-08T13:47:06.978Z,94.31
2023-03-08T13:48:06.983Z,94.51
2023-03-08T13:49:06.971Z,94.72
2023-03-08T13:50:06.959Z,94.62
2023-03-08T13:51:06.930Z,94.20
2023-03-08T13:52:06.931Z,94.20
2023-03-08T13:53:07.072Z,94.16
2023-03-08T13:54:06.921Z,94.37
2023-03-08T13:55:06.891Z,94.16
2023-03-08T13:56:06.942Z,94.26
2023-03-08T13:57:06.934Z,94.68
2023-03-08T13:58:06.842Z,93.85
2023-03-08T13:59:06.865Z,93.54
2023-03-08T14:00:06.827Z,93.43
2023-03-08T14:01:06.871Z,93.12
2023-03-08T14:02:06.825Z,93.33
2023-03-08T14:03:06.846Z,93.43
2023-03-08T14:04:06.869Z,93.54
2023-03-08T14:05:06.745Z,94.06
2023-03-08T14:06:06.837Z,93.95
2023-03-08T14:07:06.720Z,93.43
2023-03-08T14:08:06.773Z,92.91
2023-03-08T14:09:06.699Z,93.23
2023-03-08T14:10:06.695Z,93.23
2023-03-08T14:11:06.686Z,93.23
2023-03-08T14:12:06.750Z,93.27
2023-03-08T14:13:06.648Z,93.33
2023-03-08T14:14:06.660Z,93.85
2023-03-08T14:15:06.674Z,93.64
2023-03-08T14:16:06.634Z,93.74
2023-03-08T14:17:06.645Z,94.26
2023-03-08T14:18:06.645Z,94.16
2023-03-08T14:19:06.606Z,94.16
2023-03-08T14:20:06.611Z,94.16
2023-03-08T14:21:06.571Z,94.47
2023-03-08T14:22:06.539Z,94.57
2023-03-08T14:23:06.545Z,94.78
2023-03-08T14:24:06.548Z,95.09
2023-03-08T14:25:06.540Z,95.05
2023-03-08T14:26:06.469Z,95.05
2023-03-08T14:27:06.461Z,94.74
2023-03-08T14:28:06.471Z,94.74
2023-03-08T14:29:06.434Z,94.64
2023-03-08T14:30:06.443Z,94.37
2023-03-08T14:31:06.468Z,94.06
2023-03-08T14:32:06.581Z,93.74
2023-03-08T14:33:06.397Z,93.95
2023-03-08T14:34:06.368Z,94.26
2023-03-08T14:35:06.418Z,94.47
2023-03-08T14:36:06.359Z,94.37
2023-03-08T14:37:06.335Z,94.06
2023-03-08T14:38:06.316Z,94.10
2023-03-08T14:39:06.317Z,94.26
2023-03-08T14:40:06.317Z,94.37
2023-03-08T14:41:06.332Z,94.20
2023-03-08T14:42:06.257Z,93.89
2023-03-08T14:43:06.269Z,93.79
2023-03-08T14:44:06.249Z,93.99
2023-03-08T14:45:06.242Z,94.06
2023-03-08T14:46:06.309Z,94.26
2023-03-08T14:47:06.194Z,93.95
2023-03-08T14:48:06.182Z,94.06
2023-03-08T14:49:06.254Z,94.06
2023-03-08T14:50:06.164Z,93.95
2023-03-08T14:51:06.162Z,93.95
2023-03-08T14:52:07.952Z,93.95
2023-03-08T14:53:06.121Z,93.85
2023-03-08T14:54:06.104Z,93.54
2023-03-08T14:55:06.119Z,93.43
2023-03-08T14:56:06.085Z,93.43
2023-03-08T14:57:06.070Z,93.33
2023-03-08T14:58:06.051Z,93.64
2023-03-08T14:59:06.048Z,93.95
2023-03-08T15:00:06.026Z,93.95
2023-03-08T15:01:06.030Z,93.74
2023-03-08T15:02:06.046Z,93.95
2023-03-08T15:03:05.989Z,93.85
2023-03-08T15:04:06.005Z,93.95
2023-03-08T15:05:05.966Z,94.06
2023-03-08T15:06:06.000Z,94.16
2023-03-08T15:07:06.019Z,94.26
2023-03-08T15:08:05.916Z,94.16
2023-03-08T15:09:05.906Z,93.95
2023-03-08T15:10:05.928Z,93.95
2023-03-08T15:11:05.894Z,94.47
2023-03-08T15:12:05.945Z,94.78
2023-03-08T15:13:05.853Z,94.89
2023-03-08T15:14:05.842Z,94.78
2023-03-08T15:15:05.832Z,95.09
2023-03-08T15:16:05.829Z,95.40
2023-03-08T15:17:05.817Z,95.09
2023-03-08T15:18:05.804Z,95.20
2023-03-08T15:19:05.799Z,95.51
2023-03-08T15:20:05.802Z,95.20
2023-03-08T15:21:05.766Z,94.99
2023-03-08T15:22:05.755Z,94.99
2023-03-08T15:23:05.729Z,95.40
2023-03-08T15:24:05.701Z,95.62
2023-03-08T15:25:05.698Z,95.40
2023-03-08T15:26:05.704Z,95.30
2023-03-08T15:27:05.692Z,95.51
2023-03-08T15:28:05.662Z,95.51
2023-03-08T15:29:05.646Z,95.36
2023-03-08T15:30:05.667Z,95.57
2023-03-08T15:31:05.642Z,95.47
2023-03-08T15:32:05.688Z,95.67
2023-03-08T15:33:05.598Z,95.78
2023-03-08T15:34:05.583Z,95.89
2023-03-08T15:35:05.568Z,96.09
2023-03-08T15:36:05.571Z,95.93
2023-03-08T15:37:05.537Z,96.30
2023-03-08T15:38:05.551Z,96.34
2023-03-08T15:39:05.505Z,96.45
2023-03-08T15:40:07.747Z,96.66
2023-03-08T15:41:05.519Z,96.55
2023-03-08T15:42:05.514Z,96.76
2023-03-08T15:43:05.486Z,96.66
2023-03-08T15:44:05.454Z,96.66
2023-03-08T15:45:05.439Z,96.76
2023-03-08T15:46:05.443Z,96.76
2023-03-08T15:47:05.494Z,96.97
2023-03-08T15:48:05.398Z,96.97
2023-03-08T15:49:05.417Z,97.07
2023-03-08T15:50:05.397Z,97.28
2023-03-08T15:51:05.351Z,97.12
2023-03-08T15:52:07.581Z,97.17
2023-03-08T15:53:05.335Z,97.38
2023-03-08T15:54:05.320Z,97.70
2023-03-08T15:55:05.298Z,97.28
2023-03-08T15:56:05.297Z,96.97
2023-03-08T15:57:05.290Z,96.97
2023-03-08T15:58:06.782Z,96.91
2023-03-08T15:59:05.239Z,96.91
2023-03-08T16:00:05.237Z,97.43
2023-03-08T16:01:05.230Z,97.53
2023-03-08T16:02:05.356Z,97.64
2023-03-08T16:03:05.207Z,97.85
2023-03-08T16:04:05.187Z,97.85
2023-03-08T16:05:05.216Z,98.16
2023-03-08T16:06:05.167Z,98.26
2023-03-08T16:07:05.188Z,98.57
2023-03-08T16:08:05.155Z,98.68
2023-03-08T16:09:05.127Z,98.99
2023-03-08T16:10:05.125Z,99.30
2023-03-08T16:11:05.087Z,99.41
2023-03-08T16:12:05.098Z,99.20
2023-03-08T16:13:05.067Z,99.20
2023-03-08T16:14:05.072Z,99.20
2023-03-08T16:15:05.126Z,99.41
2023-03-08T16:16:05.090Z,99.51
2023-03-08T16:17:05.207Z,99.51
2023-03-08T16:18:05.069Z,99.51
2023-03-08T16:19:04.991Z,99.41
2023-03-08T16:20:04.989Z,99.51
2023-03-08T16:21:04.962Z,99.62
2023-03-08T16:22:04.985Z,99.72
2023-03-08T16:23:04.953Z,99.93
2023-03-08T16:24:04.937Z,99.99
2023-03-08T16:25:04.922Z,99.99
2023-03-08T16:26:14.645Z,99.99
2023-03-08T16:27:05.905Z,99.99
2023-03-08T16:28:04.926Z,99.99
2023-03-08T16:29:04.875Z,99.99
2023-03-08T16:30:04.860Z,99.99
2023-03-08T16:31:04.852Z,99.99
2023-03-08T16:32:05.019Z,99.99
2023-03-08T16:33:04.813Z,99.99
2023-03-08T16:34:04.821Z,99.99
2023-03-08T16:35:04.793Z,99.99
2023-03-08T16:36:04.909Z,99.99
2023-03-08T16:37:04.771Z,99.99
2023-03-08T16:38:04.761Z,99.99
2023-03-08T16:39:04.741Z,99.99
2023-03-08T16:40:04.748Z,99.99
2023-03-08T16:41:13.538Z,99.99
2023-03-08T16:42:05.711Z,99.99
2023-03-08T16:43:04.700Z,99.99
2023-03-08T16:44:04.686Z,99.99
2023-03-08T16:45:04.669Z,99.99
2023-03-08T16:46:04.752Z,99.99
2023-03-08T16:47:04.626Z,99.99
2023-03-08T16:48:04.665Z,99.99
2023-03-08T16:49:04.606Z,99.99
2023-03-08T16:50:04.620Z,99.99
2023-03-08T16:51:04.588Z,99.99
2023-03-08T16:52:04.596Z,99.99
2023-03-08T16:53:04.569Z,99.99
2023-03-08T16:54:04.546Z,99.99
2023-03-08T16:55:04.524Z,99.99
2023-03-08T16:56:04.528Z,99.99
2023-03-08T16:57:16.681Z,99.99
2023-03-08T16:58:05.501Z,99.99
2023-03-08T17:00:13.352Z,99.99
2023-03-08T17:01:13.483Z,99.99
2023-03-08T17:02:13.339Z,99.99
2023-03-08T17:03:13.320Z,99.99
2023-03-08T17:04:13.300Z,99.99
2023-03-08T17:05:13.283Z,99.99
2023-03-08T17:06:13.294Z,99.99
2023-03-08T17:07:13.257Z,99.99
2023-03-08T17:08:13.264Z,99.99
2023-03-08T17:09:13.239Z,99.99
2023-03-08T17:10:13.222Z,99.99
2023-03-08T17:11:13.203Z,99.99
2023-03-08T17:12:13.196Z,99.99
2023-03-08T17:13:13.188Z,99.99
2023-03-08T17:14:13.168Z,99.99
2023-03-08T17:15:13.162Z,99.99
2023-03-08T17:16:13.238Z,99.99
2023-03-08T17:17:13.155Z,99.99
2023-03-08T17:18:13.145Z,99.99
2023-03-08T17:19:13.108Z,99.99
2023-03-08T17:20:13.094Z,99.99
2023-03-08T17:21:13.080Z,99.99
2023-03-08T17:22:13.067Z,99.99
2023-03-08T17:23:13.058Z,99.99
2023-03-08T17:24:13.035Z,99.99
2023-03-08T17:25:13.025Z,99.99
2023-03-08T17:26:13.046Z,99.99
2023-03-08T17:27:13.007Z,99.99
2023-03-08T17:28:12.996Z,99.99
2023-03-08T17:29:12.967Z,99.99
2023-03-08T17:30:12.966Z,99.99
2023-03-08T17:31:12.976Z,99.99
2023-03-08T17:32:12.998Z,99.99
2023-03-08T17:33:12.945Z,99.99
2023-03-08T17:34:12.907Z,99.99
2023-03-08T17:35:12.892Z,99.99
2023-03-08T17:36:12.989Z,99.99
2023-03-08T17:37:12.865Z,99.99
2023-03-08T17:38:12.874Z,99.99
2023-03-08T17:39:12.846Z,99.99
2023-03-08T17:40:12.837Z,99.99
2023-03-08T17:41:12.819Z,99.99
2023-03-08T17:42:12.810Z,99.99
2023-03-08T17:43:12.802Z,99.99
2023-03-08T17:44:12.786Z,99.99
2023-03-08T17:45:12.770Z,99.99
2023-03-08T17:46:12.818Z,99.99
2023-03-08T17:47:12.732Z,99.99
2023-03-08T17:48:12.722Z,99.99
2023-03-08T17:49:12.725Z,99.99
2023-03-08T17:50:12.711Z,99.99
2023-03-08T17:51:12.681Z,99.99
2023-03-08T17:52:12.673Z,99.99
2023-03-08T17:53:12.662Z,99.99
2023-03-08T17:54:12.770Z,99.99
2023-03-08T17:55:12.633Z,99.99
2023-03-08T17:56:12.627Z,99.99
2023-03-08T17:57:12.613Z,99.99
2023-03-08T17:58:12.601Z,99.99
2023-03-08T17:59:12.593Z,99.99
2023-03-08T18:00:12.574Z,99.99
2023-03-08T18:01:12.552Z,99.99
2023-03-08T18:02:12.592Z,99.99
2023-03-08T18:03:12.532Z,99.99
2023-03-08T18:04:12.544Z,99.99
2023-03-08T18:05:12.523Z,99.99
2023-03-08T18:06:12.501Z,99.99
2023-03-08T18:07:12.482Z,99.99
2023-03-08T18:08:12.471Z,99.99